Time;durP1;ratioP1;P1;durP2;ratioP2;P2;SDS_P1;SDS_P2;PMS_P1;PMS_P2;Temp;Humidity;BMP_temperature;BMP_pressure;BME280_temperature;BME280_humidity;BME280_pressure;Samples;Min_cycle;Max_cycle;Signal;HPM_P1;HPM_P2
2021/03/24 00:01:24;;;;;;;12.65;8.70;;;1.60;99.90;;;;;;6090291;29;20035;-80
2021/03/24 00:04:25;;;;;;;;;;;1.60;99.90;;;;;;6090327;29;20079;-81
2021/03/24 00:07:25;;;;;;;13.93;8.00;;;1.40;99.90;;;;;;6105336;29;20327;-80
2021/03/24 00:10:26;;;;;;;11.90;7.93;;;;;;;;;;6104584;29;20062;-80
2021/03/24 00:13:27;;;;;;;13.57;8.55;;;;;;;;;;6122002;29;20090;-80
2021/03/24 00:16:28;;;;;;;16.33;8.73;;;;;;;;;;6104046;29;20031;-80
2021/03/24 00:19:29;;;;;;;16.80;9.07;;;1.50;99.90;;;;;;6104887;29;20398;-80
2021/03/24 00:22:30;;;;;;;13.02;8.35;;;;;;;;;;6104899;29;20050;-80
2021/03/24 00:25:30;;;;;;;14.00;8.35;;;1.80;99.90;;;;;;6121662;29;20023;-80
2021/03/24 00:28:31;;;;;;;12.38;7.93;;;;;;;;;;6105651;29;20040;-80
2021/03/24 00:31:32;;;;;;;11.95;8.30;;;;;;;;;;6089149;29;20070;-80
2021/03/24 00:34:33;;;;;;;12.27;7.88;;;;;;;;;;6089218;29;20602;-80
2021/03/24 00:37:34;;;;;;;16.73;7.90;;;;;;;;;;6104631;29;20067;-80
2021/03/24 00:40:37;;;;;;;14.52;8.32;;;1.50;99.90;;;;;;6104968;29;20028;-80
2021/03/24 00:43:37;;;;;;;13.35;8.10;;;1.50;99.90;;;;;;6104813;29;20398;-80
2021/03/24 00:46:38;;;;;;;13.10;7.90;;;;;;;;;;6105025;29;20063;-80
2021/03/24 00:49:39;;;;;;;15.43;8.18;;;;;;;;;;6104667;29;20031;-80
2021/03/24 00:52:40;;;;;;;11.80;7.43;;;1.30;99.90;;;;;;6107837;29;20594;-80
2021/03/24 00:55:40;;;;;;;13.95;8.43;;;1.30;99.90;;;;;;6094089;29;20042;-80
2021/03/24 00:58:42;;;;;;;11.32;7.13;;;;;;;;;;6093108;29;20036;-80
2021/03/24 01:01:42;;;;;;;12.93;8.73;;;1.00;99.90;;;;;;6126326;29;20023;-80
2021/03/24 01:04:43;;;;;;;21.95;12.73;;;;;;;;;;6062466;29;20079;-80
2021/03/24 01:07:45;;;;;;;22.75;12.85;;;1.20;99.90;;;;;;6109089;29;20027;-81
2021/03/24 01:10:46;;;;;;;20.20;11.15;;;;;;;;;;6108156;29;20055;-81
2021/03/24 01:13:47;;;;;;;14.75;8.77;;;;;;;;;;6108827;29;20040;-81
2021/03/24 01:16:48;;;;;;;19.35;12.52;;;1.20;99.90;;;;;;6108432;29;20042;-81
2021/03/24 01:19:48;;;;;;;17.20;9.95;;;1.30;99.90;;;;;;6093060;29;20497;-81
2021/03/24 01:22:49;;;;;;;25.55;14.57;;;;;;;;;;6093465;29;20118;-80
2021/03/24 01:25:50;;;;;;;26.13;14.15;;;1.20;99.90;;;;;;6108022;29;20424;-81
2021/03/24 01:29:00;;;;;;;13.45;7.70;;;1.20;99.90;;;;;;6108353;29;20115;-81
2021/03/24 01:32:01;;;;;;;14.15;9.13;;;;;;;;;;6079242;29;20055;-80
2021/03/24 01:35:02;;;;;;;15.95;8.98;;;;;;;;;;6092708;29;20390;-80
2021/03/24 01:38:03;;;;;;;18.85;9.88;;;;;;;;;;6092279;29;20075;-81
2021/03/24 01:41:04;;;;;;;16.58;10.98;;;;;;;;;;6108306;29;20038;-81
2021/03/24 01:44:05;;;;;;;20.73;10.38;;;;;;;;;;6125336;29;20035;-81
2021/03/24 01:47:06;;;;;;;19.10;11.23;;;;;;;;;;6107812;29;20493;-81
2021/03/24 01:50:14;;;;;;;22.70;12.15;;;;;;;;;;6124716;29;20033;-81
2021/03/24 01:53:16;;;;;;;14.05;8.90;;;1.00;99.90;;;;;;6107861;29;20697;-81
2021/03/24 01:56:17;;;;;;;15.15;9.48;;;;;;;;;;6076235;29;20051;-81
2021/03/24 01:59:17;;;;;;;18.17;9.90;;;1.00;99.90;;;;;;6092144;29;20028;-80
2021/03/24 02:02:25;;;;;;;15.25;8.55;;;1.00;99.90;;;;;;6075889;29;20034;-81
2021/03/24 02:05:25;;;;;;;21.10;12.63;;;1.50;99.90;;;;;;6092821;29;20415;-81
2021/03/24 02:08:29;;;;;;;17.00;9.52;;;1.00;99.90;;;;;;6107088;29;20039;-80
2021/03/24 02:11:33;;;;;;;14.57;8.05;;;1.20;99.90;;;;;;6076061;29;20399;-81
2021/03/24 02:14:40;;;;;;;16.27;10.77;;;1.10;99.90;;;;;;6091732;29;20042;-81
2021/03/24 02:17:42;;;;;;;16.40;9.95;;;1.10;99.90;;;;;;6074374;29;20043;-81
2021/03/24 02:20:55;;;;;;;13.68;8.43;;;1.30;99.90;;;;;;6107256;29;20356;-81
2021/03/24 02:24:19;;;;;;;14.32;8.80;;;2.40;99.90;;;;;;6124064;29;20024;-81
2021/03/24 02:27:25;;;;;;;14.82;8.20;;;1.40;99.90;;;;;;6110237;29;20036;-80
2021/03/24 02:30:28;;;;;;;14.82;8.27;;;1.30;99.90;;;;;;6107557;29;20067;-81
2021/03/24 02:33:32;;;;;;;18.45;10.88;;;1.70;99.90;;;;;;6091481;29;20036;-80
2021/03/24 02:36:33;;;;;;;18.95;10.95;;;;;;;;;;6106288;29;20038;-82
2021/03/24 02:39:34;;;;;;;19.17;9.57;;;;;;;;;;6091068;29;20031;-81
2021/03/24 02:42:36;;;;;;;21.30;11.10;;;1.00;99.90;;;;;;6090766;29;20036;-81
2021/03/24 02:45:39;;;;;;;17.88;9.80;;;1.00;99.90;;;;;;6106554;29;20032;-81
2021/03/24 02:48:40;;;;;;;19.42;10.88;;;;;;;;;;6090909;29;20035;-81
2021/03/24 02:51:41;;;;;;;13.90;7.97;;;;;;;;;;6106647;29;20031;-81
2021/03/24 02:54:42;;;;;;;13.48;8.35;;;0.80;99.90;;;;;;6106646;29;20046;-81
2021/03/24 02:57:43;;;;;;;16.67;8.93;;;;;;;;;;6090763;29;20044;-81
2021/03/24 03:00:46;;;;;;;16.50;9.55;;;0.60;99.90;;;;;;6090581;29;20028;-81
2021/03/24 03:03:57;;;;;;;17.70;9.65;;;0.70;99.90;;;;;;6090544;29;20032;-81
2021/03/24 03:06:58;;;;;;;22.50;11.35;;;;;;;;;;6092075;29;20370;-81
2021/03/24 03:10:15;;;;;;;13.32;7.95;;;0.30;99.90;;;;;;6106241;29;20059;-81
2021/03/24 03:13:19;;;;;;;13.13;8.02;;;0.40;99.90;;;;;;6090422;29;20360;-81
2021/03/24 03:16:34;;;;;;;16.58;9.07;;;0.50;99.90;;;;;;6073829;29;20043;-81
2021/03/24 03:20:09;;;;;;;15.93;7.82;;;0.50;99.90;;;;;;6123108;29;20032;-81
2021/03/24 03:23:18;;;;;;;16.48;8.57;;;0.50;99.90;;;;;;6078917;29;20048;-81
2021/03/24 03:26:21;;;;;;;12.88;8.85;;;0.60;99.90;;;;;;6090386;29;20036;-81
2021/03/24 03:29:21;;;;;;;17.58;10.48;;;0.60;99.90;;;;;;6090315;29;20059;-81
2021/03/24 03:32:22;;;;;;;12.70;8.57;;;;;;;;;;6090169;29;20059;-81
2021/03/24 03:35:24;;;;;;;14.85;9.50;;;0.80;99.90;;;;;;6105736;29;20048;-80
2021/03/24 03:38:26;;;;;;;16.13;9.02;;;0.80;99.90;;;;;;6105623;29;20082;-81
2021/03/24 03:41:27;;;;;;;16.55;10.23;;;;;;;;;;6105173;29;20407;-80
2021/03/24 03:44:28;;;;;;;13.32;8.32;;;1.00;99.90;;;;;;6105458;29;20079;-81
2021/03/24 03:47:29;;;;;;;16.52;9.75;;;;;;;;;;6089542;29;20514;-81
2021/03/24 03:50:30;;;;;;;21.30;10.77;;;0.80;99.90;;;;;;6106097;29;20024;-81
2021/03/24 03:53:39;;;;;;;19.40;11.07;;;0.70;99.90;;;;;;6089122;29;20138;-81
2021/03/24 03:57:09;;;;;;;19.23;10.55;;;0.60;99.90;;;;;;6089749;29;20420;-81
2021/03/24 04:00:10;;;;;;;20.27;9.65;;;;;;;;;;6117148;29;20044;-81
2021/03/24 04:03:11;;;;;;;11.50;8.15;;;;;;;;;;6122482;29;20067;-81
2021/03/24 04:06:21;;;;;;;13.20;7.95;;;0.50;99.90;;;;;;6122323;29;20031;-80
2021/03/24 04:09:22;;;;;;;15.00;8.98;;;;;;;;;;6089452;29;20505;-80
2021/03/24 04:12:23;;;;;;;23.10;11.57;;;;;;;;;;6105316;29;20379;-80
2021/03/24 04:15:25;;;;;;;36.55;19.55;;;;;;;;;;6105524;29;20119;-80
2021/03/24 04:18:34;;;;;;;15.63;9.27;;;0.00;99.90;;;;;;6122480;29;20028;-81
2021/03/24 04:21:36;;;;;;;18.50;16.60;;;;;;;;;;6090957;29;20031;-81
2021/03/24 04:24:38;;;;;;;12.95;9.80;;;0.30;99.90;;;;;;6105138;29;20036;-81
2021/03/24 04:27:39;;;;;;;14.07;8.75;;;;;;;;;;6077521;29;20561;-81
2021/03/24 04:30:46;;;;;;;14.15;8.77;;;0.20;99.90;;;;;;6109265;29;20110;-81
2021/03/24 04:33:47;;;;;;;11.93;8.30;;;;;;;;;;6077431;29;20039;-81
2021/03/24 04:37:04;;;;;;;14.38;8.93;;;0.40;99.90;;;;;;6109820;29;20056;-81
2021/03/24 04:40:04;;;;;;;17.30;8.98;;;0.40;99.90;;;;;;6095027;29;20879;-81
2021/03/24 04:43:09;;;;;;;14.05;8.52;;;0.70;99.90;;;;;;6126672;29;20038;-81
2021/03/24 04:46:19;;;;;;;16.20;11.35;;;0.30;99.90;;;;;;6063011;29;20028;-81
2021/03/24 04:49:22;;;;;;;20.00;11.68;;;0.40;99.90;;;;;;6078363;29;20034;-81
2021/03/24 04:52:22;;;;;;;;;;;0.20;99.90;;;;;;6093943;29;20031;-81
2021/03/24 04:55:24;;;;;;;23.17;11.93;;;0.00;99.90;;;;;;6109410;29;20412;-81
2021/03/24 04:58:32;;;;;;;19.33;12.17;;;0.20;99.90;;;;;;6093333;29;20115;-81
2021/03/24 05:01:44;;;;;;;15.13;9.95;;;0.30;99.90;;;;;;6109579;29;20083;-81
2021/03/24 05:04:56;;;;;;;16.47;10.93;;;0.40;99.90;;;;;;6094477;29;20035;-81
2021/03/24 05:08:04;;;;;;;16.95;11.20;;;0.20;99.90;;;;;;6109614;29;20047;-81
2021/03/24 05:11:25;;;;;;;25.00;15.45;;;-0.50;99.90;;;;;;6093303;29;20059;-80
2021/03/24 05:14:42;;;;;;;39.38;24.08;;;0.10;99.90;;;;;;6093126;29;20040;-81
2021/03/24 05:17:43;;;;;;;14.95;9.02;;;0.00;99.90;;;;;;6108756;29;20038;-80
2021/03/24 05:20:56;;;;;;;14.85;9.32;;;0.70;99.90;;;;;;6093062;29;20031;-81
2021/03/24 05:23:57;;;;;;;14.27;9.13;;;0.60;99.90;;;;;;6078832;29;20046;-80
2021/03/24 05:27:05;;;;;;;15.98;10.70;;;0.50;99.90;;;;;;6077197;29;20119;-81
2021/03/24 05:30:33;;;;;;;15.40;9.68;;;0.50;99.90;;;;;;6093222;29;20390;-81
2021/03/24 05:33:39;;;;;;;16.17;10.13;;;0.40;99.90;;;;;;6094122;29;20367;-81
2021/03/24 05:36:41;;;;;;;17.42;9.57;;;0.50;99.90;;;;;;6108543;29;20058;-82
2021/03/24 05:39:42;;;;;;;18.05;9.18;;;;;;;;;;6076291;29;20042;-81
2021/03/24 05:42:52;;;;;;;15.15;9.68;;;0.30;99.90;;;;;;6092748;29;20031;-81
2021/03/24 05:45:58;;;;;;;13.52;8.32;;;0.20;99.90;;;;;;6092179;29;20031;-80
2021/03/24 05:49:24;;;;;;;16.38;9.45;;;0.30;99.90;;;;;;6108463;29;20024;-81
2021/03/24 05:52:56;;;;;;;15.45;9.88;;;0.40;99.90;;;;;;6103776;29;20082;-83
2021/03/24 05:56:11;;;;;;;15.00;10.95;;;0.50;99.90;;;;;;6091999;29;20043;-87
2021/03/24 05:59:25;;;;;;;14.95;9.45;;;1.00;99.90;;;;;;6108372;29;20024;-85
2021/03/24 06:03:00;;;;;;;13.48;8.75;;;1.10;99.90;;;;;;6091963;29;20062;-85
2021/03/24 06:06:19;;;;;;;19.45;9.95;;;2.20;99.90;;;;;;6107738;29;20407;-85
2021/03/24 06:09:34;;;;;;;25.92;14.10;;;3.20;99.90;;;;;;6108200;29;20056;-87
2021/03/24 06:12:35;;;;;;;17.45;10.13;;;;;;;;;;6107943;29;20034;-84
2021/03/24 06:15:57;;;;;;;18.60;11.82;;;4.30;99.90;;;;;;6106765;29;20510;-80
2021/03/24 06:19:20;;;;;;;15.13;10.00;;;4.80;96.20;;;;;;6110065;29;20028;-81
2021/03/24 06:22:28;;;;;;;14.80;9.10;;;4.80;99.90;;;;;;6123862;29;20036;-81
2021/03/24 06:25:40;;;;;;;16.17;9.02;;;5.10;99.90;;;;;;6090643;29;20040;-81
2021/03/24 06:29:00;;;;;;;14.75;9.15;;;5.50;99.90;;;;;;6106861;29;20027;-81
2021/03/24 06:32:10;;;;;;;12.43;8.20;;;5.20;99.90;;;;;;6093300;29;20027;-82
2021/03/24 06:35:40;;;;;;;15.25;9.40;;;5.60;99.90;;;;;;6124351;29;20090;-82
2021/03/24 06:38:59;;;;;;;12.13;8.75;;;6.30;99.90;;;;;;6093727;29;20584;-84
2021/03/24 06:42:08;;;;;;;18.13;12.13;;;6.50;99.90;;;;;;6106360;29;20035;-85
2021/03/24 06:45:34;;;;;;;15.70;9.13;;;7.00;90.30;;;;;;6091389;29;20395;-85
2021/03/24 06:48:40;;;;;;;15.20;11.05;;;7.30;99.30;;;;;;6106332;29;20030;-84
2021/03/24 06:52:22;;;;;;;13.57;9.23;;;7.60;98.10;;;;;;6105262;29;20039;-85
2021/03/24 06:55:47;;;;;;;12.25;8.85;;;8.80;88.20;;;;;;6090885;29;20048;-86
2021/03/24 06:58:57;;;;;;;10.25;8.13;;;8.20;95.90;;;;;;6106183;29;20038;-86
2021/03/24 07:02:32;;;;;;;11.93;8.70;;;8.20;96.00;;;;;;6106619;29;20086;-84
2021/03/24 07:06:10;;;;;;;12.23;8.48;;;8.40;83.00;;;;;;6109026;29;20039;-88
2021/03/24 07:09:20;;;;;;;9.07;6.68;;;9.00;81.50;;;;;;6105085;29;20062;-82
2021/03/24 07:12:37;;;;;;;40.10;22.35;;;9.80;94.20;;;;;;6104801;29;20717;-88
2021/03/24 07:15:49;;;;;;;17.73;11.00;;;10.40;97.80;;;;;;6104116;29;20082;-87
2021/03/24 07:19:04;;;;;;;10.80;8.00;;;10.80;85.10;;;;;;6075113;29;20765;-87
2021/03/24 07:22:11;;;;;;;11.80;7.68;;;10.90;87.60;;;;;;6105215;29;20103;-87
2021/03/24 07:25:22;;;;;;;13.80;9.23;;;11.00;74.50;;;;;;6090123;29;20471;-87
2021/03/24 07:28:41;;;;;;;13.35;8.23;;;11.10;70.80;;;;;;6089925;29;20056;-87
2021/03/24 07:31:53;;;;;;;11.50;7.93;;;11.30;74.20;;;;;;6105754;29;20027;-87
2021/03/24 07:34:55;;;;;;;13.05;7.97;;;;;;;;;;6106656;29;20059;-86
2021/03/24 07:38:41;;;;;;;10.40;8.30;;;11.70;84.90;;;;;;6122888;29;20545;-86
2021/03/24 07:41:57;;;;;;;12.30;8.32;;;11.50;68.80;;;;;;6100307;29;20382;-86
2021/03/24 07:45:04;;;;;;;14.05;7.80;;;12.40;86.40;;;;;;6105534;29;20028;-86
2021/03/24 07:48:26;;;;;;;10.45;8.45;;;12.20;69.50;;;;;;6089783;29;20551;-86
2021/03/24 07:51:52;;;;;;;12.52;7.93;;;12.50;67.80;;;;;;6105232;29;20509;-86
2021/03/24 07:55:00;;;;;;;9.90;7.57;;;12.40;67.70;;;;;;6121898;29;20039;-86
2021/03/24 07:58:27;;;;;;;12.30;8.40;;;12.90;71.20;;;;;;6089031;29;20070;-87
2021/03/24 08:01:41;;;;;;;12.40;8.23;;;13.50;86.90;;;;;;6092741;29;20046;-86
2021/03/24 08:04:48;;;;;;;10.20;8.10;;;13.80;64.40;;;;;;6098256;29;20081;-86
2021/03/24 08:07:59;;;;;;;11.20;7.70;;;14.70;82.90;;;;;;6127623;29;20475;-86
2021/03/24 08:11:09;;;;;;;12.55;8.77;;;15.00;81.00;;;;;;6095479;29;20063;-85
2021/03/24 08:14:25;;;;;;;16.70;13.30;;;15.60;76.20;;;;;;6111213;29;20047;-86
2021/03/24 08:17:33;;;;;;;10.43;8.30;;;15.40;78.40;;;;;;6128254;29;20067;-87
2021/03/24 08:20:40;;;;;;;10.63;7.82;;;;;;;;;;6096735;29;20020;-86
2021/03/24 08:24:01;;;;;;;11.20;8.07;;;15.60;61.30;;;;;;6112644;29;20035;-87
2021/03/24 08:27:08;;;;;;;10.43;8.10;;;16.30;59.10;;;;;;6112305;29;20036;-84
2021/03/24 08:30:23;;;;;;;12.93;8.50;;;16.90;53.30;;;;;;6081989;29;20070;-87
2021/03/24 08:33:43;;;;;;;11.07;8.38;;;17.10;53.40;;;;;;6096834;29;20122;-86
2021/03/24 08:37:05;;;;;;;13.48;8.50;;;18.10;51.60;;;;;;6098731;29;20119;-84
2021/03/24 08:40:34;;;;;;;11.90;7.78;;;18.50;72.20;;;;;;6112939;29;20031;-84
2021/03/24 08:43:37;;;;;;;13.45;8.32;;;18.40;66.50;;;;;;6097036;29;20463;-83
2021/03/24 08:46:49;;;;;;;16.38;8.10;;;18.60;63.10;;;;;;6129939;29;20039;-84
2021/03/24 08:49:51;;;;;;;9.30;7.40;;;18.70;47.90;;;;;;6097190;29;20031;-83
2021/03/24 08:53:07;;;;;;;9.30;7.40;;;19.10;49.80;;;;;;6080848;29;20394;-87
2021/03/24 08:56:10;;;;;;;11.05;8.05;;;19.30;46.70;;;;;;6097344;29;20101;-86
2021/03/24 08:59:41;;;;;;;9.23;7.70;;;19.70;64.50;;;;;;6112644;29;20035;-87
2021/03/24 09:03:11;;;;;;;10.05;7.78;;;19.50;67.80;;;;;;6129480;29;20028;-88
2021/03/24 09:06:35;;;;;;;12.80;7.53;;;20.00;66.30;;;;;;6084899;29;20486;-87
2021/03/24 09:09:41;;;;;;;10.25;8.18;;;20.30;47.80;;;;;;6112732;29;20047;-89
2021/03/24 09:12:56;;;;;;;9.18;6.63;;;20.30;64.70;;;;;;6111831;29;20036;-87
2021/03/24 09:16:03;;;;;;;9.88;7.57;;;20.40;44.50;;;;;;6078248;29;20058;-86
2021/03/24 09:19:09;;;;;;;11.45;8.90;;;20.60;46.40;;;;;;6093175;29;20052;-86
2021/03/24 09:22:18;;;;;;;10.02;7.82;;;20.20;45.10;;;;;;6108968;29;20036;-86
2021/03/24 09:25:46;;;;;;;9.93;7.32;;;20.30;47.50;;;;;;6108447;29;20126;-87
2021/03/24 09:29:15;;;;;;;11.98;8.35;;;20.20;62.40;;;;;;6088322;29;20036;-86
2021/03/24 09:32:22;;;;;;;10.52;7.32;;;20.20;44.60;;;;;;6077296;29;20447;-86
2021/03/24 09:35:56;;;;;;;9.02;7.20;;;20.70;45.10;;;;;;6092673;29;20040;-87
2021/03/24 09:38:57;;;;;;;13.95;8.55;;;20.70;43.20;;;;;;6108710;29;20035;-86
2021/03/24 09:42:16;;;;;;;11.88;8.35;;;22.50;48.00;;;;;;6077449;29;20031;-88
2021/03/24 09:45:26;;;;;;;12.55;8.32;;;20.90;45.90;;;;;;6094460;29;20375;-86
2021/03/24 09:48:27;;;;;;;14.50;8.80;;;20.80;45.90;;;;;;6078509;29;20032;-87
2021/03/24 09:51:40;;;;;;;10.75;7.93;;;20.90;60.40;;;;;;6076836;29;20119;-87
2021/03/24 09:55:03;;;;;;;9.68;8.32;;;20.50;46.80;;;;;;6077821;29;20039;-86
2021/03/24 09:58:13;;;;;;;;;;;20.50;46.00;;;;;;6108653;29;20038;-88
2021/03/24 10:01:34;;;;;;;11.60;8.10;;;20.10;45.70;;;;;;6108629;29;19906;-88
2021/03/24 10:05:05;;;;;;;12.50;9.02;;;19.80;46.70;;;;;;6077330;29;20020;-87
2021/03/24 10:08:18;;;;;;;15.48;8.95;;;20.10;73.50;;;;;;6077955;29;20546;-87
2021/03/24 10:11:24;;;;;;;13.65;8.82;;;20.00;57.30;;;;;;6076800;29;20055;-88
2021/03/24 10:14:47;;;;;;;12.25;9.25;;;19.80;58.20;;;;;;6076726;29;20479;-87
2021/03/24 10:17:47;;;;;;;13.57;9.23;;;19.80;57.50;;;;;;6084146;29;20024;-85
2021/03/24 10:21:10;;;;;;;16.08;9.45;;;20.30;61.30;;;;;;6104904;29;20027;-88
2021/03/24 10:24:30;;;;;;;18.05;9.35;;;20.20;44.50;;;;;;6105353;29;20035;-88
2021/03/24 10:27:31;;;;;;;13.55;9.70;;;20.20;44.70;;;;;;6092146;29;20062;-88
2021/03/24 10:30:52;;;;;;;14.13;9.45;;;19.90;47.90;;;;;;6075841;29;20036;-87
2021/03/24 10:33:57;;;;;;;12.27;10.30;;;19.80;45.70;;;;;;6076863;29;20387;-88
2021/03/24 10:37:28;;;;;;;12.65;9.50;;;19.90;45.70;;;;;;6076055;29;20038;-87
2021/03/24 10:40:31;;;;;;;12.48;8.68;;;20.20;44.70;;;;;;6106990;29;20077;-88
2021/03/24 10:43:44;;;;;;;14.82;9.65;;;20.10;45.80;;;;;;6075529;29;20043;-89
2021/03/24 10:47:28;;;;;;;12.18;8.77;;;20.40;45.90;;;;;;6075714;29;20043;-88
2021/03/24 10:51:27;;;;;;;12.27;8.80;;;20.80;43.80;;;;;;6106014;29;20082;-87
2021/03/24 10:54:31;;;;;;;10.43;7.50;;;20.80;43.70;;;;;;6068340;29;20059;-87
2021/03/24 10:57:43;;;;;;;10.68;7.97;;;20.80;43.70;;;;;;6091255;29;20359;-86
2021/03/24 11:00:59;;;;;;;10.55;7.38;;;20.80;43.20;;;;;;6075619;29;20075;-87
2021/03/24 11:04:13;;;;;;;10.43;7.05;;;20.50;44.10;;;;;;6076319;29;20040;-88
2021/03/24 11:07:25;;;;;;;9.95;7.15;;;20.60;43.80;;;;;;6076106;29;20431;-88
2021/03/24 11:10:38;;;;;;;9.05;7.18;;;20.70;45.60;;;;;;6098751;29;20055;-88
2021/03/24 11:13:47;;;;;;;9.30;7.10;;;20.70;50.00;;;;;;6082923;29;20482;-85
2021/03/24 11:17:03;;;;;;;8.10;6.57;;;20.30;53.50;;;;;;6068187;29;20498;-87
2021/03/24 11:20:10;;;;;;;13.23;6.95;;;21.10;51.50;;;;;;6098156;29;20028;-83
2021/03/24 11:23:13;;;;;;;11.50;7.75;;;20.60;58.00;;;;;;6067311;29;20435;-84
2021/03/24 11:26:45;;;;;;;9.73;7.28;;;20.90;46.70;;;;;;6067207;29;20078;-85
2021/03/24 11:29:59;;;;;;;12.53;7.70;;;21.00;46.40;;;;;;6099513;29;20183;-85
2021/03/24 11:33:30;;;;;;;11.48;7.10;;;20.90;45.90;;;;;;6066907;29;20036;-84
2021/03/24 11:36:41;;;;;;;11.10;7.47;;;20.90;44.90;;;;;;6069067;29;20036;-83
2021/03/24 11:39:52;;;;;;;12.77;8.52;;;20.80;44.20;;;;;;6083612;29;20395;-83
2021/03/24 11:42:58;;;;;;;11.15;7.00;;;20.60;45.50;;;;;;6067192;29;20684;-84
2021/03/24 11:46:16;;;;;;;10.02;7.30;;;20.50;44.80;;;;;;6067311;29;20531;-83
2021/03/24 11:49:51;;;;;;;9.85;7.72;;;20.40;45.00;;;;;;6066836;29;20126;-82
2021/03/24 11:53:17;;;;;;;10.63;7.93;;;20.20;44.10;;;;;;6084707;29;20036;-82
2021/03/24 11:56:55;;;;;;;10.90;7.00;;;20.10;45.80;;;;;;6083859;29;20051;-83
2021/03/24 12:00:11;;;;;;;9.80;7.75;;;19.90;45.10;;;;;;6097259;29;20036;-83
2021/03/24 12:03:32;;;;;;;10.45;7.05;;;19.80;45.60;;;;;;6097155;29;20028;-85
2021/03/24 12:07:10;;;;;;;11.95;6.60;;;19.90;49.10;;;;;;6081291;29;20497;-83
2021/03/24 12:10:11;;;;;;;14.20;7.15;;;19.80;46.10;;;;;;6083820;29;20139;-82
2021/03/24 12:13:20;;;;;;;9.27;6.68;;;20.00;49.80;;;;;;6098415;29;20094;-82
2021/03/24 12:16:20;;;;;;;11.38;7.57;;;19.70;48.10;;;;;;6066423;29;20079;-83
2021/03/24 12:19:36;;;;;;;10.82;7.65;;;19.60;50.50;;;;;;6066088;29;20028;-83
2021/03/24 12:22:36;;;;;;;10.13;7.28;;;19.50;47.50;;;;;;6066852;29;20024;-83
2021/03/24 12:25:37;;;;;;;13.05;7.13;;;19.40;50.70;;;;;;6065194;29;20128;-85
2021/03/24 12:28:39;;;;;;;9.70;6.43;;;19.30;49.20;;;;;;6082002;29;20036;-86
2021/03/24 12:31:55;;;;;;;9.85;7.63;;;19.30;48.70;;;;;;6064884;29;20047;-85
2021/03/24 12:34:55;;;;;;;12.00;7.43;;;19.30;77.90;;;;;;6065591;29;20052;-86
2021/03/24 12:38:08;;;;;;;8.75;6.68;;;18.80;79.10;;;;;;6064720;29;20028;-86
2021/03/24 12:41:09;;;;;;;8.70;6.93;;;19.00;59.50;;;;;;6058068;29;20032;-81
2021/03/24 12:44:27;;;;;;;10.50;7.22;;;18.90;58.50;;;;;;6065211;29;20607;-84
2021/03/24 12:47:30;;;;;;;11.73;7.07;;;18.70;49.60;;;;;;6083795;29;20024;-81
2021/03/24 12:50:31;;;;;;;8.95;5.90;;;18.60;51.20;;;;;;6085751;29;20126;-82
2021/03/24 12:53:49;;;;;;;9.98;6.75;;;18.60;67.60;;;;;;6070432;29;20038;-84
2021/03/24 12:57:17;;;;;;;8.57;6.60;;;18.60;49.20;;;;;;6072214;29;20040;-81
2021/03/24 13:00:26;;;;;;;9.13;6.95;;;18.60;48.80;;;;;;6101394;29;20030;-83
2021/03/24 13:04:01;;;;;;;11.63;7.32;;;18.70;49.50;;;;;;6084722;29;20034;-80
2021/03/24 13:07:24;;;;;;;10.13;7.47;;;18.30;48.30;;;;;;6101976;29;20040;-82
2021/03/24 13:10:32;;;;;;;10.05;6.65;;;18.30;51.10;;;;;;6085186;29;20059;-79
2021/03/24 13:14:10;;;;;;;10.18;6.82;;;18.40;51.90;;;;;;6100269;29;20051;-79
2021/03/24 13:17:31;;;;;;;11.05;6.95;;;18.80;52.50;;;;;;6102141;29;20395;-80
2021/03/24 13:20:39;;;;;;;9.75;6.95;;;18.90;46.80;;;;;;6100648;29;20831;-79
2021/03/24 13:24:08;;;;;;;11.57;7.45;;;19.00;50.90;;;;;;6100666;29;20047;-78
2021/03/24 13:27:19;;;;;;;8.25;5.55;;;19.00;50.40;;;;;;6100887;29;20056;-79
2021/03/24 13:30:30;;;;;;;8.50;5.50;;;19.10;47.70;;;;;;6069849;29;20043;-78
2021/03/24 13:34:02;;;;;;;7.88;5.38;;;19.20;47.20;;;;;;6100766;29;20292;-80
2021/03/24 13:37:03;;;;;;;10.75;5.68;;;18.60;57.90;;;;;;6101490;29;20079;-81
2021/03/24 13:40:19;;;;;;;7.07;5.18;;;18.60;46.40;;;;;;6099742;29;20040;-79
2021/03/24 13:43:31;;;;;;;7.80;6.53;;;18.70;80.40;;;;;;6085471;29;20080;-82
2021/03/24 13:46:35;;;;;;;9.53;5.83;;;18.60;50.00;;;;;;6085448;29;20020;-79
2021/03/24 13:49:40;;;;;;;8.38;6.80;;;18.80;50.60;;;;;;6083328;29;20024;-80
2021/03/24 13:52:55;;;;;;;9.80;7.30;;;18.70;47.00;;;;;;6083372;29;20364;-79
2021/03/24 13:56:01;;;;;;;7.97;6.60;;;18.70;46.10;;;;;;6081800;29;20364;-80
2021/03/24 13:59:29;;;;;;;11.25;7.82;;;18.50;48.30;;;;;;6084304;29;20031;-78
2021/03/24 14:02:59;;;;;;;22.85;7.70;;;18.40;50.10;;;;;;6081031;29;20110;-80
2021/03/24 14:06:13;;;;;;;10.23;6.80;;;18.10;54.50;;;;;;6100052;29;20084;-81
2021/03/24 14:09:31;;;;;;;12.77;6.57;;;17.80;47.90;;;;;;6084503;29;20503;-86
2021/03/24 14:12:50;;;;;;;9.85;5.90;;;18.10;51.10;;;;;;6085494;29;20123;-80
2021/03/24 14:16:26;;;;;;;11.10;5.78;;;18.30;49.10;;;;;;6099851;29;20044;-80
2021/03/24 14:19:36;;;;;;;11.50;6.47;;;18.50;47.30;;;;;;6029617;29;20093;-80
2021/03/24 14:22:37;;;;;;;8.68;5.93;;;18.40;48.60;;;;;;6099410;29;20024;-77
2021/03/24 14:25:38;;;;;;;7.38;5.43;;;18.40;49.60;;;;;;6101108;29;20040;-81
2021/03/24 14:28:51;;;;;;;9.48;6.95;;;18.70;63.30;;;;;;6067260;29;20051;-83
2021/03/24 14:32:17;;;;;;;9.73;5.97;;;18.60;48.80;;;;;;6099048;29;20091;-83
2021/03/24 14:35:51;;;;;;;9.95;5.97;;;18.60;49.30;;;;;;6083052;29;20055;-84
2021/03/24 14:39:07;;;;;;;9.52;6.38;;;18.50;48.70;;;;;;6098917;29;20402;-83
2021/03/24 15:01:52;;;;;;;10.27;6.50;;;18.00;49.20;;;;;;6098533;29;20062;-84
2021/03/24 15:04:54;;;;;;;10.73;6.15;;;17.80;49.90;;;;;;6064277;29;20210;-82
2021/03/24 15:08:20;;;;;;;8.20;5.80;;;17.80;50.90;;;;;;6080744;29;20043;-83
2021/03/24 15:11:20;;;;;;;9.07;5.72;;;17.80;50.00;;;;;;6086639;29;20056;-87
2021/03/24 15:14:40;;;;;;;10.05;6.75;;;17.80;51.20;;;;;;6099445;29;20067;-85
2021/03/24 15:17:55;;;;;;;10.32;6.15;;;17.70;50.10;;;;;;6068803;29;20040;-84
